GCFV/FUE METAR and TAF weather

Enter ICAO airport designator
Station Type Date Time Source
GCFV METAR 2021/03/07 07:30 UTC NOAA

GCFV 070730Z 35015KT 9999 SCT045 17/12 Q1022


Station Type Date Time Source
GCFV Decoded METAR 2021/03/07 07:30 UTC NOAA

Fuerteventura / Aeropuerto, Spain (GCFV) 28-27N 013-52W 30M
Mar 07, 2021 - 02:30 AM EST / 2021.03.07 0730 UTC
Wind: from the N (350 degrees) at 17 MPH (15 KT):0
Visibility: greater than 7 mile(s):0
Sky conditions: partly cloudy
Temperature: 62 F (17 C)
Dew Point: 53 F (12 C)
Relative Humidity: 72%
Pressure (altimeter): 30.18 in. Hg (1022 hPa)
ob: GCFV 070730Z 35015KT 9999 SCT045 17/12 Q1022
cycle: 7

Station Type Date Time Source
GCFV TAF 2021/03/07 03:27 UTC NOAA

TAF TAF GCFV 070200Z 0703/0803 36013KT 9999 SCT035 TX22/0714Z TN16/0707Z PROB30
TEMPO 0710/0718 36015G25KT

Example: see airport list